createdAt,value
2018-07-21T00:00:38.966Z,18.50
2018-07-21T00:03:07.222Z,18.50
2018-07-21T00:08:03.470Z,18.50
2018-07-21T00:10:31.727Z,18.40
2018-07-21T00:12:59.961Z,18.40
2018-07-21T00:15:28.555Z,18.50
2018-07-21T00:17:56.786Z,18.50
2018-07-21T00:20:25.043Z,18.40
2018-07-21T00:22:53.264Z,18.40
2018-07-21T00:25:21.596Z,18.40
2018-07-21T00:27:50.180Z,18.50
2018-07-21T00:30:18.442Z,18.40
2018-07-21T00:32:46.976Z,18.40
2018-07-21T00:35:17.359Z,18.40
2018-07-21T00:37:45.559Z,18.40
2018-07-21T00:40:13.780Z,18.40
2018-07-21T00:42:42.251Z,18.40
2018-07-21T00:45:10.677Z,18.40
2018-07-21T00:47:38.892Z,18.40
2018-07-21T00:52:36.011Z,18.40
2018-07-21T00:55:04.674Z,18.40
2018-07-21T00:57:32.912Z,18.40
2018-07-21T01:00:01.118Z,18.30
2018-07-21T01:02:29.412Z,18.30
2018-07-21T01:04:57.679Z,18.20
2018-07-21T01:07:25.928Z,18.20
2018-07-21T01:09:54.108Z,18.20
2018-07-21T01:12:22.288Z,18.20
2018-07-21T01:14:50.511Z,18.20
2018-07-21T01:17:18.708Z,18.20
2018-07-21T01:19:46.898Z,18.20
2018-07-21T01:22:15.073Z,18.10
2018-07-21T01:24:43.625Z,18.10
2018-07-21T01:27:11.854Z,18.10
2018-07-21T01:29:40.056Z,18.00
2018-07-21T01:32:08.293Z,18.00
2018-07-21T01:34:36.587Z,18.00
2018-07-21T01:37:04.937Z,18.00
2018-07-21T01:39:33.140Z,18.00
2018-07-21T01:42:01.419Z,17.90
2018-07-21T01:44:29.696Z,17.90
2018-07-21T01:46:57.951Z,17.90
2018-07-21T01:49:26.118Z,17.80
2018-07-21T01:51:54.322Z,17.90
2018-07-21T01:54:22.763Z,17.90
2018-07-21T01:56:50.978Z,17.90
2018-07-21T01:59:19.237Z,17.90
2018-07-21T02:01:47.490Z,17.90
2018-07-21T02:04:15.828Z,17.90
2018-07-21T02:06:44.570Z,17.90
2018-07-21T02:09:13.329Z,17.90
2018-07-21T02:11:41.586Z,17.90
2018-07-21T02:14:09.937Z,17.90
2018-07-21T02:16:38.124Z,17.90
2018-07-21T02:19:06.411Z,17.90
2018-07-21T02:21:34.760Z,17.90
2018-07-21T02:24:03.088Z,17.90
2018-07-21T02:26:31.301Z,17.90
2018-07-21T02:29:00.194Z,17.80
2018-07-21T02:31:28.469Z,17.80
2018-07-21T02:33:56.809Z,17.80
2018-07-21T02:36:25.137Z,17.70
2018-07-21T02:38:53.619Z,17.70
2018-07-21T02:41:21.933Z,17.70
2018-07-21T02:43:50.153Z,17.70
2018-07-21T02:46:18.422Z,17.60
2018-07-21T02:48:46.650Z,17.60
2018-07-21T02:51:14.894Z,17.60
2018-07-21T02:53:43.086Z,17.60
2018-07-21T02:56:11.319Z,17.60
2018-07-21T02:58:39.522Z,17.50
2018-07-21T03:01:07.985Z,17.50
2018-07-21T03:03:36.199Z,17.50
2018-07-21T03:06:04.583Z,17.50
2018-07-21T03:08:32.797Z,17.50
2018-07-21T03:11:01.024Z,17.50
2018-07-21T03:13:29.274Z,17.60
2018-07-21T03:15:57.672Z,17.60
2018-07-21T03:18:25.882Z,17.60
2018-07-21T03:20:54.134Z,17.60
2018-07-21T03:23:22.420Z,17.60
2018-07-21T03:25:50.765Z,17.60
2018-07-21T03:28:19.050Z,17.70
2018-07-21T03:30:47.452Z,17.70
2018-07-21T03:33:15.584Z,17.70
2018-07-21T03:35:43.887Z,17.70
2018-07-21T03:38:12.203Z,17.70
2018-07-21T03:40:41.559Z,17.60
2018-07-21T03:43:09.796Z,17.60
2018-07-21T03:45:38.185Z,17.70
2018-07-21T03:48:06.496Z,17.80
2018-07-21T03:50:34.843Z,17.80
2018-07-21T03:53:03.612Z,17.80
2018-07-21T03:55:31.913Z,17.80
2018-07-21T03:58:00.135Z,17.80
2018-07-21T04:00:28.588Z,17.70
2018-07-21T04:02:56.852Z,17.60
2018-07-21T04:05:25.272Z,17.60
2018-07-21T04:07:53.528Z,17.60
2018-07-21T04:10:21.760Z,17.50
2018-07-21T04:12:49.991Z,17.50
2018-07-21T04:15:18.893Z,17.50
2018-07-21T04:17:47.047Z,17.40
2018-07-21T04:20:15.238Z,17.40
2018-07-21T04:22:43.456Z,17.30
2018-07-21T04:25:11.840Z,17.30
2018-07-21T04:27:40.002Z,17.30
2018-07-21T04:30:08.237Z,17.30
2018-07-21T04:32:36.491Z,17.20
2018-07-21T04:35:04.811Z,17.10
2018-07-21T04:37:33.040Z,17.10
2018-07-21T04:40:01.261Z,17.10
2018-07-21T04:42:29.481Z,17.20
2018-07-21T04:44:57.869Z,17.20
2018-07-21T04:47:26.147Z,17.20
2018-07-21T04:49:54.343Z,17.20
2018-07-21T04:52:22.582Z,17.10
2018-07-21T04:54:50.958Z,17.10
2018-07-21T04:57:19.174Z,17.10
2018-07-21T04:59:47.391Z,17.10
2018-07-21T05:02:15.539Z,17.10
2018-07-21T05:04:43.814Z,17.10
2018-07-21T05:07:11.998Z,17.00
2018-07-21T05:09:40.219Z,17.00
2018-07-21T05:12:08.544Z,17.00
2018-07-21T05:14:37.221Z,17.00
2018-07-21T05:17:05.492Z,16.90
2018-07-21T05:19:33.665Z,16.90
2018-07-21T05:22:01.891Z,16.90
2018-07-21T05:24:30.288Z,17.00
2018-07-21T05:26:58.471Z,17.10
2018-07-21T05:29:26.640Z,17.20
2018-07-21T05:31:54.908Z,17.40
2018-07-21T05:34:24.206Z,17.50
2018-07-21T05:36:52.424Z,17.70
2018-07-21T05:39:20.661Z,17.90
2018-07-21T05:41:48.887Z,18.00
2018-07-21T05:44:17.249Z,18.10
2018-07-21T05:46:45.473Z,18.20
2018-07-21T05:49:13.703Z,18.30
2018-07-21T05:51:41.901Z,18.40
2018-07-21T05:54:10.186Z,18.50
2018-07-21T05:56:38.358Z,18.60
2018-07-21T05:59:06.571Z,18.70
2018-07-21T06:01:34.767Z,18.80
2018-07-21T06:04:03.071Z,18.80
2018-07-21T06:06:31.371Z,18.90
2018-07-21T06:08:59.631Z,19.00
2018-07-21T06:11:27.877Z,19.10
2018-07-21T06:13:56.208Z,19.30
2018-07-21T06:16:24.452Z,19.40
2018-07-21T06:18:52.639Z,19.50
2018-07-21T06:21:20.884Z,19.60
2018-07-21T06:23:49.306Z,19.70
2018-07-21T06:26:17.527Z,19.80
2018-07-21T06:28:45.731Z,19.90
2018-07-21T06:31:13.934Z,20.00
2018-07-21T06:33:42.126Z,20.10
2018-07-21T06:36:10.495Z,20.10
2018-07-21T06:38:38.765Z,20.10
2018-07-21T06:41:07.418Z,20.10
2018-07-21T06:43:35.870Z,20.10
2018-07-21T06:46:04.246Z,20.20
2018-07-21T06:48:32.602Z,20.30
2018-07-21T06:51:00.978Z,20.30
2018-07-21T06:53:29.291Z,20.20
2018-07-21T06:55:57.714Z,20.20
2018-07-21T06:58:25.924Z,20.30
2018-07-21T07:00:54.152Z,20.30
2018-07-21T07:03:22.380Z,20.20
2018-07-21T07:05:50.784Z,20.10
2018-07-21T07:08:19.014Z,20.10
2018-07-21T07:10:47.335Z,20.20
2018-07-21T07:13:15.522Z,20.30
2018-07-21T07:18:11.745Z,20.40
2018-07-21T07:20:39.939Z,20.50
2018-07-21T07:23:08.192Z,20.50
2018-07-21T07:25:37.642Z,20.70
2018-07-21T07:28:05.891Z,20.70
2018-07-21T07:30:34.130Z,20.80
2018-07-21T07:33:02.438Z,20.70
2018-07-21T07:35:30.674Z,20.70
2018-07-21T07:37:58.844Z,20.80
2018-07-21T07:40:27.092Z,20.90
2018-07-21T07:42:55.326Z,20.90
2018-07-21T07:45:23.572Z,20.90
2018-07-21T07:47:51.770Z,20.90
2018-07-21T07:50:19.960Z,20.90
2018-07-21T07:52:48.162Z,21.00
2018-07-21T07:55:16.496Z,21.10
2018-07-21T07:57:44.702Z,21.10
2018-07-21T08:00:13.100Z,21.10
2018-07-21T08:02:41.313Z,21.00
2018-07-21T08:05:10.680Z,20.90
2018-07-21T08:07:38.934Z,20.90
2018-07-21T08:10:07.755Z,21.10
2018-07-21T08:12:36.016Z,21.10
2018-07-21T08:15:04.398Z,21.10
2018-07-21T08:17:32.596Z,21.30
2018-07-21T08:20:00.850Z,21.40
2018-07-21T08:22:29.051Z,21.50
2018-07-21T08:24:58.488Z,21.50
2018-07-21T08:27:26.739Z,21.50
2018-07-21T08:29:54.972Z,21.40
2018-07-21T08:32:23.238Z,21.40
2018-07-21T08:34:51.603Z,21.50
2018-07-21T08:37:19.850Z,21.50
2018-07-21T08:39:48.029Z,21.50
2018-07-21T08:42:16.365Z,21.60
2018-07-21T08:44:44.633Z,21.70
2018-07-21T08:47:12.843Z,21.60
2018-07-21T08:49:41.086Z,21.50
2018-07-21T08:52:09.265Z,21.50
2018-07-21T08:54:38.214Z,21.50
2018-07-21T08:57:06.617Z,21.50
2018-07-21T08:59:34.861Z,21.50
2018-07-21T09:02:03.081Z,21.50
2018-07-21T09:04:31.452Z,21.50
2018-07-21T09:06:59.690Z,21.50
2018-07-21T09:09:27.913Z,21.50
2018-07-21T09:11:56.134Z,21.40
2018-07-21T09:14:24.521Z,21.60
2018-07-21T09:16:52.761Z,21.80
2018-07-21T09:19:20.901Z,21.90
2018-07-21T09:21:49.061Z,22.10
2018-07-21T09:24:17.436Z,22.10
2018-07-21T09:26:45.636Z,22.10
2018-07-21T09:29:13.901Z,22.10
2018-07-21T09:31:42.170Z,22.10
2018-07-21T09:34:10.588Z,22.20
2018-07-21T09:36:38.833Z,22.30
2018-07-21T09:39:08.814Z,22.30
2018-07-21T09:41:37.004Z,22.20
2018-07-21T09:44:05.430Z,22.30
2018-07-21T09:49:02.024Z,22.30
2018-07-21T09:51:30.750Z,22.40
2018-07-21T09:54:00.375Z,22.30
2018-07-21T09:58:56.679Z,22.20
2018-07-21T10:01:24.954Z,22.20
2018-07-21T10:03:53.171Z,22.10
2018-07-21T10:06:21.425Z,22.20
2018-07-21T10:08:49.683Z,22.20
2018-07-21T10:11:17.859Z,22.10
2018-07-21T10:13:46.055Z,22.30
2018-07-21T10:16:14.307Z,22.30
2018-07-21T10:18:42.529Z,22.40
2018-07-21T10:21:10.721Z,22.40
2018-07-21T10:23:38.964Z,22.40
2018-07-21T10:26:12.646Z,22.40
2018-07-21T10:28:46.137Z,22.40
2018-07-21T10:31:14.346Z,22.40
2018-07-21T10:33:42.991Z,22.50
2018-07-21T10:36:11.217Z,22.40
2018-07-21T10:38:39.698Z,22.30
2018-07-21T10:41:07.889Z,22.40
2018-07-21T10:43:36.115Z,22.60
2018-07-21T10:48:32.312Z,22.60
2018-07-21T10:51:01.155Z,22.60
2018-07-21T10:53:29.346Z,22.60
2018-07-21T10:55:57.575Z,22.60
2018-07-21T10:58:25.791Z,22.60
2018-07-21T11:00:54.047Z,22.60
2018-07-21T11:03:22.241Z,22.50
2018-07-21T11:05:50.812Z,22.50
2018-07-21T11:08:18.991Z,22.50
2018-07-21T11:10:47.204Z,22.70
2018-07-21T11:13:15.440Z,22.60
2018-07-21T11:15:44.015Z,22.60
2018-07-21T11:18:12.239Z,22.60
2018-07-21T11:20:40.476Z,22.60
2018-07-21T11:23:08.873Z,22.80
2018-07-21T11:25:37.556Z,22.80
2018-07-21T11:28:05.776Z,22.60
2018-07-21T11:30:34.023Z,22.70
2018-07-21T11:33:02.280Z,22.70
2018-07-21T11:35:30.669Z,22.80
2018-07-21T11:37:58.915Z,22.80
2018-07-21T11:40:27.101Z,22.70
2018-07-21T11:42:55.298Z,22.70
2018-07-21T11:45:25.825Z,22.90
2018-07-21T11:47:55.008Z,22.80
2018-07-21T11:50:23.197Z,22.80
2018-07-21T11:52:51.675Z,23.00
2018-07-21T11:55:20.082Z,23.30
2018-07-21T11:57:48.308Z,23.30
2018-07-21T12:00:16.494Z,23.40
2018-07-21T12:02:44.815Z,23.40
2018-07-21T12:05:13.173Z,23.30
2018-07-21T12:07:41.392Z,23.40
2018-07-21T12:10:09.635Z,23.40
2018-07-21T12:12:38.111Z,23.30
2018-07-21T12:17:35.380Z,23.40
2018-07-21T12:20:03.613Z,23.40
2018-07-21T12:22:31.826Z,23.50
2018-07-21T12:25:00.075Z,23.50
2018-07-21T12:27:28.280Z,23.50
2018-07-21T12:29:56.459Z,23.70
2018-07-21T12:34:52.788Z,23.70
2018-07-21T12:39:49.005Z,23.60
2018-07-21T12:42:17.261Z,23.80
2018-07-21T12:44:45.547Z,23.90
2018-07-21T12:47:14.058Z,23.90
2018-07-21T12:49:42.323Z,24.10
2018-07-21T12:52:10.903Z,24.10
2018-07-21T12:57:08.533Z,24.00
2018-07-21T12:59:37.112Z,23.90
2018-07-21T13:02:05.446Z,24.00
2018-07-21T13:04:34.072Z,24.10
2018-07-21T13:07:02.448Z,24.20
2018-07-21T13:09:30.625Z,24.10
2018-07-21T13:11:58.867Z,24.10
2018-07-21T13:14:27.077Z,24.20
2018-07-21T13:16:55.355Z,24.20
2018-07-21T13:19:23.579Z,24.30
2018-07-21T13:21:51.778Z,24.40
2018-07-21T13:24:19.981Z,24.40
2018-07-21T13:26:48.296Z,24.30
2018-07-21T13:29:16.529Z,24.10
2018-07-21T13:31:44.756Z,24.10
2018-07-21T13:34:13.197Z,24.10
2018-07-21T13:36:41.421Z,24.00
2018-07-21T13:39:11.032Z,24.00
2018-07-21T13:44:08.817Z,24.20
2018-07-21T13:46:37.023Z,24.10
2018-07-21T13:49:05.197Z,24.00
2018-07-21T13:51:33.418Z,23.90
2018-07-21T13:54:02.146Z,24.00
2018-07-21T13:56:31.120Z,24.10
2018-07-21T13:58:59.479Z,24.20
2018-07-21T14:01:27.728Z,24.20
2018-07-21T14:03:58.138Z,24.30
2018-07-21T14:06:26.354Z,24.30
2018-07-21T14:08:54.685Z,24.30
2018-07-21T14:11:22.847Z,24.20
2018-07-21T14:13:51.091Z,24.30
2018-07-21T14:16:19.335Z,24.50
2018-07-21T14:18:47.605Z,24.60
2018-07-21T14:21:15.837Z,24.40
2018-07-21T14:23:44.123Z,24.40
2018-07-21T14:26:12.337Z,24.40
2018-07-21T14:28:40.545Z,24.50
2018-07-21T14:31:08.784Z,24.40
2018-07-21T14:33:36.972Z,24.30
2018-07-21T14:36:05.740Z,24.40
2018-07-21T14:38:34.030Z,24.30
2018-07-21T14:41:02.246Z,24.40
2018-07-21T14:43:30.458Z,24.30
2018-07-21T14:45:58.882Z,24.20
2018-07-21T14:48:27.061Z,24.30
2018-07-21T14:50:55.536Z,24.20
2018-07-21T14:53:23.718Z,24.30
2018-07-21T14:55:52.061Z,24.30
2018-07-21T14:58:20.235Z,24.50
2018-07-21T15:00:48.456Z,24.70
2018-07-21T15:03:16.691Z,24.60
2018-07-21T15:05:45.040Z,24.60
2018-07-21T15:08:13.277Z,24.70
2018-07-21T15:10:41.523Z,24.90
2018-07-21T15:13:09.750Z,24.90
2018-07-21T15:15:38.115Z,24.80
2018-07-21T15:18:06.371Z,24.70
2018-07-21T15:20:34.540Z,24.80
2018-07-21T15:23:02.749Z,24.90
2018-07-21T15:25:31.026Z,24.90
2018-07-21T15:27:59.307Z,24.90
2018-07-21T15:30:27.976Z,25.00
2018-07-21T15:32:56.160Z,24.90
2018-07-21T15:35:24.558Z,24.80
2018-07-21T15:37:52.802Z,24.60
2018-07-21T15:40:21.045Z,24.60
2018-07-21T15:42:49.130Z,24.50
2018-07-21T15:45:17.481Z,24.60
2018-07-21T15:47:45.667Z,24.50
2018-07-21T15:50:14.133Z,24.50
2018-07-21T15:52:42.522Z,24.50
2018-07-21T15:55:10.971Z,24.40
2018-07-21T15:57:39.239Z,24.40
2018-07-21T16:00:08.536Z,24.40
2018-07-21T16:02:36.747Z,24.50
2018-07-21T16:05:05.167Z,24.50
2018-07-21T16:07:33.340Z,24.40
2018-07-21T16:10:01.514Z,24.40
2018-07-21T16:12:29.704Z,24.40
2018-07-21T16:15:03.867Z,24.40
2018-07-21T16:17:26.355Z,24.30
2018-07-21T16:19:54.534Z,24.20
2018-07-21T16:22:22.820Z,24.20
2018-07-21T16:24:51.066Z,24.10
2018-07-21T16:27:19.362Z,24.00
2018-07-21T16:29:47.543Z,24.00
2018-07-21T16:32:15.780Z,24.00
2018-07-21T16:34:44.198Z,24.00
2018-07-21T16:37:12.460Z,24.00
2018-07-21T16:39:41.400Z,23.80
2018-07-21T16:42:10.312Z,23.80
2018-07-21T16:44:38.817Z,23.80
2018-07-21T16:47:07.190Z,23.70
2018-07-21T16:49:35.425Z,23.60
2018-07-21T16:52:03.673Z,23.70
2018-07-21T16:54:31.949Z,23.70
2018-07-21T16:57:00.153Z,23.60
2018-07-21T16:59:28.345Z,23.60
2018-07-21T17:01:56.663Z,23.50
2018-07-21T17:04:25.089Z,23.50
2018-07-21T17:06:53.340Z,23.50
2018-07-21T17:09:21.569Z,23.40
2018-07-21T17:11:49.778Z,23.30
2018-07-21T17:14:18.703Z,23.30
2018-07-21T17:19:14.970Z,23.30
2018-07-21T17:21:43.226Z,23.20
2018-07-21T17:24:11.514Z,23.20
2018-07-21T17:26:39.684Z,23.10
2018-07-21T17:29:07.919Z,23.10
2018-07-21T17:31:36.248Z,23.10
2018-07-21T17:36:32.695Z,23.00
2018-07-21T17:39:00.884Z,23.00
2018-07-21T17:41:29.081Z,22.90
2018-07-21T17:43:57.233Z,22.90
2018-07-21T17:46:25.498Z,23.00
2018-07-21T17:48:53.682Z,22.90
2018-07-21T17:51:21.866Z,22.90
2018-07-21T17:53:50.062Z,22.90
2018-07-21T17:56:18.257Z,22.90
2018-07-21T17:58:46.429Z,22.80
2018-07-21T18:01:14.712Z,22.80
2018-07-21T18:03:43.802Z,22.80
2018-07-21T18:06:12.974Z,22.70
2018-07-21T18:08:41.181Z,22.70
2018-07-21T18:11:09.379Z,22.70
2018-07-21T18:13:37.626Z,22.60
2018-07-21T18:16:05.927Z,22.60
2018-07-21T18:18:34.117Z,22.60
2018-07-21T18:21:02.441Z,22.60
2018-07-21T18:23:30.674Z,22.50
2018-07-21T18:25:59.003Z,22.50
2018-07-21T18:28:27.231Z,22.50
2018-07-21T18:30:55.549Z,22.60
2018-07-21T18:33:23.817Z,22.50
2018-07-21T18:35:52.096Z,22.50
2018-07-21T18:38:20.347Z,22.40
2018-07-21T18:40:48.681Z,22.20
2018-07-21T18:43:16.932Z,22.10
2018-07-21T18:45:45.284Z,22.10
2018-07-21T18:48:13.527Z,22.00
2018-07-21T18:50:41.792Z,22.00
2018-07-21T18:53:10.010Z,22.00
2018-07-21T18:55:38.264Z,21.90
2018-07-21T18:58:06.694Z,21.90
2018-07-21T19:00:35.342Z,22.00
2018-07-21T19:03:03.536Z,22.10
2018-07-21T19:05:31.777Z,22.10
2018-07-21T19:08:00.663Z,22.10
2018-07-21T19:10:28.879Z,22.10
2018-07-21T19:12:57.128Z,22.10
2018-07-21T19:15:30.946Z,22.10
2018-07-21T19:17:59.139Z,22.00
2018-07-21T19:20:32.899Z,21.90
2018-07-21T19:23:01.177Z,21.90
2018-07-21T19:25:34.768Z,21.80
2018-07-21T19:28:03.962Z,21.80
2018-07-21T19:30:32.186Z,21.80
2018-07-21T19:33:01.278Z,21.70
2018-07-21T19:35:30.947Z,21.70
2018-07-21T19:37:59.179Z,21.70
2018-07-21T19:42:55.444Z,21.70
2018-07-21T19:45:23.744Z,21.60
2018-07-21T19:47:52.011Z,21.60
2018-07-21T19:50:20.998Z,21.50
2018-07-21T19:52:49.377Z,21.50
2018-07-21T19:55:18.000Z,21.40
2018-07-21T19:57:46.211Z,21.40
2018-07-21T20:00:15.632Z,21.40
2018-07-21T20:02:43.832Z,21.30
2018-07-21T20:05:12.192Z,21.40
2018-07-21T20:07:40.568Z,21.40
2018-07-21T20:10:08.782Z,21.40
2018-07-21T20:12:36.978Z,21.40
2018-07-21T20:15:05.298Z,21.40
2018-07-21T20:17:33.508Z,21.40
2018-07-21T20:20:01.704Z,21.40
2018-07-21T20:24:58.220Z,21.40
2018-07-21T20:27:26.428Z,21.40
2018-07-21T20:29:54.654Z,21.40
2018-07-21T20:32:22.885Z,21.30
2018-07-21T20:34:52.388Z,21.30
2018-07-21T20:37:20.882Z,21.30
2018-07-21T20:39:49.095Z,21.10
2018-07-21T20:42:17.276Z,21.00
2018-07-21T20:44:45.558Z,20.90
2018-07-21T20:47:13.792Z,20.80
2018-07-21T20:49:42.030Z,20.80
2018-07-21T20:52:10.558Z,20.90
2018-07-21T20:54:38.780Z,20.90
2018-07-21T20:57:07.248Z,20.80
2018-07-21T20:59:35.536Z,20.80
2018-07-21T21:02:03.821Z,20.80
2018-07-21T21:04:32.175Z,20.80
2018-07-21T21:07:00.526Z,20.80
2018-07-21T21:09:28.922Z,20.80
2018-07-21T21:11:57.213Z,20.80
2018-07-21T21:14:25.430Z,20.80
2018-07-21T21:16:53.646Z,20.80
2018-07-21T21:19:21.979Z,20.80
2018-07-21T21:21:50.356Z,20.90
2018-07-21T21:24:18.741Z,20.90
2018-07-21T21:26:48.017Z,20.90
2018-07-21T21:29:16.245Z,20.90
2018-07-21T21:31:44.420Z,20.80
2018-07-21T21:34:12.786Z,20.80
2018-07-21T21:36:41.050Z,20.70
2018-07-21T21:39:11.118Z,20.70
2018-07-21T21:41:39.378Z,20.70
2018-07-21T21:44:07.800Z,20.60
2018-07-21T21:46:42.592Z,20.60
2018-07-21T21:49:10.835Z,20.60
2018-07-21T21:51:39.091Z,20.60
2018-07-21T21:54:07.482Z,20.60
2018-07-21T21:56:35.674Z,20.60
2018-07-21T21:59:03.853Z,20.60
2018-07-21T22:01:32.134Z,20.50
2018-07-21T22:04:00.411Z,20.50
2018-07-21T22:06:28.665Z,20.40
2018-07-21T22:08:56.944Z,20.40
2018-07-21T22:11:25.176Z,20.40
2018-07-21T22:13:54.487Z,20.40
2018-07-21T22:16:22.722Z,20.40
2018-07-21T22:18:51.034Z,20.30
2018-07-21T22:21:19.242Z,20.20
2018-07-21T22:23:47.430Z,20.20
2018-07-21T22:26:15.635Z,20.10
2018-07-21T22:28:43.846Z,20.10
2018-07-21T22:31:12.055Z,20.10
2018-07-21T22:33:40.272Z,20.10
2018-07-21T22:36:08.560Z,20.10
2018-07-21T22:38:36.772Z,20.10
2018-07-21T22:43:33.020Z,20.10
2018-07-21T22:46:01.249Z,20.10
2018-07-21T22:48:30.214Z,20.10
2018-07-21T22:50:58.564Z,20.00
2018-07-21T22:53:26.785Z,20.00
2018-07-21T22:55:55.220Z,20.00
2018-07-21T22:58:23.438Z,20.00
2018-07-21T23:00:51.864Z,20.00
2018-07-21T23:03:20.043Z,20.00
2018-07-21T23:05:48.301Z,20.00
2018-07-21T23:10:44.531Z,20.00
2018-07-21T23:13:12.739Z,20.00
2018-07-21T23:15:40.961Z,20.00
2018-07-21T23:18:09.561Z,20.10
2018-07-21T23:20:37.739Z,20.10
2018-07-21T23:23:06.119Z,20.00
2018-07-21T23:25:34.464Z,20.00
2018-07-21T23:28:02.723Z,20.10
2018-07-21T23:30:30.914Z,20.00
2018-07-21T23:32:59.960Z,20.00
2018-07-21T23:35:28.147Z,19.90
2018-07-21T23:37:56.346Z,19.90
2018-07-21T23:40:24.542Z,19.90
2018-07-21T23:42:52.741Z,19.80
2018-07-21T23:45:21.088Z,19.80
2018-07-21T23:47:49.290Z,19.80
2018-07-21T23:50:17.495Z,19.80
2018-07-21T23:52:45.687Z,19.80
2018-07-21T23:55:13.931Z,19.80
2018-07-21T23:57:42.603Z,19.90
